createdAt,value
2018-12-22T00:00:34.326Z,99434.58
2018-12-22T00:03:01.860Z,99425.97
2018-12-22T00:05:29.362Z,99441.17
2018-12-22T00:07:56.849Z,99438.28
2018-12-22T00:10:24.377Z,99439.52
2018-12-22T00:12:52.099Z,99440.41
2018-12-22T00:15:19.673Z,99439.52
2018-12-22T00:17:47.160Z,99446.80
2018-12-22T00:20:14.648Z,99443.33
2018-12-22T00:22:42.254Z,99449.73
2018-12-22T00:25:09.798Z,99441.88
2018-12-22T00:27:38.799Z,99447.55
2018-12-22T00:30:07.396Z,99461.36
2018-12-22T00:32:34.889Z,99457.28
2018-12-22T00:35:02.500Z,99455.26
2018-12-22T00:37:29.996Z,99461.95
2018-12-22T00:39:57.562Z,99464.72
2018-12-22T00:42:25.053Z,99466.50
2018-12-22T00:44:52.566Z,99466.97
2018-12-22T00:47:20.062Z,99466.50
2018-12-22T00:49:47.554Z,99472.53
2018-12-22T00:52:15.110Z,99475.71
2018-12-22T00:54:42.675Z,99482.61
2018-12-22T00:57:10.230Z,99483.73
2018-12-22T00:59:37.791Z,99490.83
2018-12-22T01:02:05.353Z,99505.92
2018-12-22T01:04:32.928Z,99518.44
2018-12-22T01:07:00.430Z,99527.10
2018-12-22T01:09:27.929Z,99525.81
2018-12-22T01:11:55.431Z,99544.91
2018-12-22T01:14:22.922Z,99537.14
2018-12-22T01:16:50.411Z,99543.83
2018-12-22T01:19:18.067Z,99544.59
2018-12-22T01:21:45.560Z,99547.27
2018-12-22T01:24:13.086Z,99559.87
2018-12-22T01:26:40.742Z,99558.53
2018-12-22T01:29:08.242Z,99560.41
2018-12-22T01:31:35.767Z,99555.92
2018-12-22T01:34:03.293Z,99567.19
2018-12-22T01:36:30.891Z,99559.45
2018-12-22T01:38:58.386Z,99565.22
2018-12-22T01:41:25.878Z,99569.52
2018-12-22T01:43:53.463Z,99575.50
2018-12-22T01:46:20.996Z,99570.72
2018-12-22T01:48:48.586Z,99576.55
2018-12-22T01:51:16.143Z,99570.02
2018-12-22T01:53:43.635Z,99570.12
2018-12-22T01:56:11.262Z,99577.92
2018-12-22T01:58:38.748Z,99581.06
2018-12-22T02:01:06.238Z,99594.42
2018-12-22T02:03:33.754Z,99592.23
2018-12-22T02:06:01.240Z,99590.98
2018-12-22T02:08:28.867Z,99600.42
2018-12-22T02:10:56.438Z,99607.91
2018-12-22T02:13:23.934Z,99593.27
2018-12-22T02:15:51.437Z,99603.95
2018-12-22T02:18:18.939Z,99597.75
2018-12-22T02:20:46.557Z,99612.55
2018-12-22T02:23:14.121Z,99613.41
2018-12-22T02:25:41.780Z,99617.41
2018-12-22T02:28:09.349Z,99618.42
2018-12-22T02:30:36.835Z,99633.45
2018-12-22T02:33:04.882Z,99615.31
2018-12-22T02:35:32.430Z,99618.44
2018-12-22T02:37:59.994Z,99609.80
2018-12-22T02:40:27.651Z,99625.13
2018-12-22T02:42:55.154Z,99628.88
2018-12-22T02:45:22.666Z,99634.70
2018-12-22T02:47:50.231Z,99633.94
2018-12-22T02:50:19.385Z,99630.78
2018-12-22T02:52:47.006Z,99634.70
2018-12-22T02:55:14.547Z,99642.91
2018-12-22T02:57:42.119Z,99649.02
2018-12-22T03:00:10.916Z,99636.05
2018-12-22T03:02:38.459Z,99637.95
2018-12-22T03:05:06.138Z,99636.38
2018-12-22T03:07:33.694Z,99632.42
2018-12-22T03:10:01.252Z,99638.43
2018-12-22T03:12:28.905Z,99646.20
2018-12-22T03:14:56.460Z,99645.50
2018-12-22T03:17:23.959Z,99641.25
2018-12-22T03:19:51.506Z,99637.06
2018-12-22T03:22:19.058Z,99638.11
2018-12-22T03:24:46.604Z,99634.48
2018-12-22T03:27:14.162Z,99637.55
2018-12-22T03:29:41.722Z,99643.45
2018-12-22T03:32:09.296Z,99652.86
2018-12-22T03:34:36.855Z,99664.58
2018-12-22T03:37:04.345Z,99662.68
2018-12-22T03:39:31.963Z,99650.66
2018-12-22T03:41:59.683Z,99673.27
2018-12-22T03:44:27.221Z,99676.75
2018-12-22T03:46:54.847Z,99664.16
2018-12-22T03:49:22.404Z,99668.22
2018-12-22T03:51:49.924Z,99688.91
2018-12-22T03:54:17.730Z,99697.30
2018-12-22T03:56:45.505Z,99707.17
2018-12-22T03:59:13.055Z,99710.56
2018-12-22T04:01:40.571Z,99699.07
2018-12-22T04:04:08.072Z,99707.78
2018-12-22T04:06:35.588Z,99694.05
2018-12-22T04:09:04.578Z,99702.06
2018-12-22T04:11:32.190Z,99705.59
2018-12-22T04:13:59.705Z,99713.60
2018-12-22T04:16:27.292Z,99711.22
2018-12-22T04:18:54.835Z,99708.48
2018-12-22T04:21:22.368Z,99719.08
2018-12-22T04:23:49.992Z,99723.65
2018-12-22T04:26:17.517Z,99718.75
2018-12-22T04:28:45.207Z,99718.36
2018-12-22T04:31:13.387Z,99727.18
2018-12-22T04:33:41.046Z,99727.31
2018-12-22T04:36:08.605Z,99732.27
2018-12-22T04:38:36.161Z,99738.52
2018-12-22T04:41:03.720Z,99746.34
2018-12-22T04:43:31.291Z,99735.86
2018-12-22T04:45:58.829Z,99750.29
2018-12-22T04:48:26.380Z,99750.54
2018-12-22T04:50:53.890Z,99753.30
2018-12-22T04:53:21.436Z,99752.91
2018-12-22T04:55:48.951Z,99752.09
2018-12-22T04:58:16.477Z,99749.29
2018-12-22T05:00:44.015Z,99749.81
2018-12-22T05:03:11.515Z,99754.85
2018-12-22T05:05:39.088Z,99751.15
2018-12-22T05:08:07.221Z,99754.98
2018-12-22T05:10:34.755Z,99758.47
2018-12-22T05:13:02.313Z,99770.39
2018-12-22T05:15:29.812Z,99760.80
2018-12-22T05:17:57.536Z,99765.14
2018-12-22T05:20:25.096Z,99779.95
2018-12-22T05:22:52.659Z,99776.95
2018-12-22T05:25:20.217Z,99776.91
2018-12-22T05:27:47.718Z,99775.48
2018-12-22T05:30:15.245Z,99780.48
2018-12-22T05:32:42.794Z,99784.44
2018-12-22T05:35:10.355Z,99782.51
2018-12-22T05:37:37.914Z,99788.97
2018-12-22T05:40:06.037Z,99783.15
2018-12-22T05:42:33.570Z,99778.89
2018-12-22T05:45:01.105Z,99783.32
2018-12-22T05:47:28.605Z,99785.56
2018-12-22T05:49:56.201Z,99770.11
2018-12-22T05:52:23.731Z,99781.64
2018-12-22T05:54:51.351Z,99785.05
2018-12-22T05:57:18.842Z,99792.32
2018-12-22T05:59:46.359Z,99790.91
2018-12-22T06:02:13.857Z,99784.66
2018-12-22T06:04:41.351Z,99790.27
2018-12-22T06:07:08.944Z,99790.13
2018-12-22T06:09:36.516Z,99800.68
2018-12-22T06:12:04.061Z,99792.67
2018-12-22T06:14:31.622Z,99794.34
2018-12-22T06:16:59.203Z,99798.02
2018-12-22T06:19:26.753Z,99801.63
2018-12-22T06:21:54.255Z,99791.20
2018-12-22T06:24:21.794Z,99802.02
2018-12-22T06:26:49.323Z,99791.20
2018-12-22T06:29:17.242Z,99791.26
2018-12-22T06:31:44.854Z,99805.08
2018-12-22T06:34:12.412Z,99794.82
2018-12-22T06:36:39.942Z,99807.61
2018-12-22T06:39:07.543Z,99807.74
2018-12-22T06:41:35.094Z,99811.61
2018-12-22T06:44:02.586Z,99814.02
2018-12-22T06:46:30.119Z,99813.77
2018-12-22T06:48:57.663Z,99822.11
2018-12-22T06:51:25.979Z,99816.83
2018-12-22T06:53:53.508Z,99821.25
2018-12-22T06:56:21.067Z,99831.63
2018-12-22T06:58:48.567Z,99839.12
2018-12-22T07:01:16.082Z,99841.05
2018-12-22T07:03:43.646Z,99844.84
2018-12-22T07:06:11.182Z,99850.65
2018-12-22T07:08:38.700Z,99853.79
2018-12-22T07:11:06.257Z,99852.45
2018-12-22T07:13:33.881Z,99853.14
2018-12-22T07:16:08.735Z,99859.81
2018-12-22T07:18:36.372Z,99863.13
2018-12-22T07:21:04.035Z,99857.27
2018-12-22T07:23:31.610Z,99876.08
2018-12-22T07:25:59.178Z,99872.63
2018-12-22T07:28:26.721Z,99879.75
2018-12-22T07:30:54.715Z,99877.70
2018-12-22T07:33:22.454Z,99880.02
2018-12-22T07:35:49.969Z,99880.41
2018-12-22T07:38:17.571Z,99882.30
2018-12-22T07:40:45.142Z,99888.02
2018-12-22T07:43:12.695Z,99885.23
2018-12-22T07:45:40.223Z,99872.14
2018-12-22T07:48:07.733Z,99884.49
2018-12-22T07:50:35.266Z,99886.89
2018-12-22T07:53:02.766Z,99886.69
2018-12-22T07:55:30.314Z,99889.75
2018-12-22T07:57:59.476Z,99890.77
2018-12-22T08:00:34.601Z,99889.35
2018-12-22T08:02:56.971Z,99887.03
2018-12-22T08:05:24.539Z,99891.34
2018-12-22T08:07:52.087Z,99886.09
2018-12-22T08:10:20.927Z,99895.42
2018-12-22T08:12:48.534Z,99899.51
2018-12-22T08:15:16.090Z,99901.50
2018-12-22T08:17:43.659Z,99909.55
2018-12-22T08:20:11.210Z,99908.69
2018-12-22T08:22:38.772Z,99910.37
2018-12-22T08:25:06.465Z,99921.16
2018-12-22T08:27:34.022Z,99917.90
2018-12-22T08:30:01.522Z,99924.45
2018-12-22T08:32:29.032Z,99925.78
2018-12-22T08:34:56.575Z,99930.89
2018-12-22T08:37:24.134Z,99939.80
2018-12-22T08:39:51.699Z,99939.63
2018-12-22T08:42:19.271Z,99954.39
2018-12-22T08:44:46.815Z,99953.73
2018-12-22T08:47:14.375Z,99962.73
2018-12-22T08:49:41.933Z,99969.52
2018-12-22T08:52:09.437Z,99974.95
2018-12-22T08:54:37.066Z,99974.53
2018-12-22T08:57:04.608Z,99977.87
2018-12-22T08:59:32.206Z,99985.85
2018-12-22T09:01:59.734Z,99995.46
2018-12-22T09:04:27.292Z,99995.89
2018-12-22T09:06:54.854Z,99991.61
2018-12-22T09:09:22.445Z,100002.02
2018-12-22T09:11:49.953Z,100006.44
2018-12-22T09:14:17.468Z,100007.97
2018-12-22T09:16:45.099Z,99999.22
2018-12-22T09:19:12.650Z,100000.75
2018-12-22T09:21:40.212Z,100002.87
2018-12-22T09:24:07.782Z,100008.41
2018-12-22T09:26:35.288Z,100011.94
2018-12-22T09:29:02.889Z,100011.47
2018-12-22T09:31:30.545Z,100013.75
2018-12-22T09:33:58.057Z,100006.80
2018-12-22T09:36:25.670Z,100013.00
2018-12-22T09:38:53.244Z,100013.75
2018-12-22T09:41:20.748Z,100012.53
2018-12-22T09:43:48.470Z,100018.30
2018-12-22T09:46:16.128Z,100020.69
2018-12-22T09:48:43.641Z,100018.14
2018-12-22T09:51:12.158Z,100020.02
2018-12-22T09:53:39.678Z,100020.41
2018-12-22T09:56:07.291Z,100022.81
2018-12-22T09:58:34.794Z,100022.14
2018-12-22T10:01:09.260Z,100034.30
2018-12-22T10:03:31.976Z,100036.03
2018-12-22T10:05:59.566Z,100035.09
2018-12-22T10:08:27.145Z,100045.48
2018-12-22T10:10:54.654Z,100043.22
2018-12-22T10:13:22.193Z,100052.43
2018-12-22T10:15:49.808Z,100052.00
2018-12-22T10:18:17.365Z,100060.27
2018-12-22T10:20:44.928Z,100070.03
2018-12-22T10:23:12.491Z,100075.96
2018-12-22T10:25:40.002Z,100077.09
2018-12-22T10:28:07.563Z,100081.73
2018-12-22T10:30:35.102Z,100083.65
2018-12-22T10:33:02.628Z,100097.16
2018-12-22T10:35:30.192Z,100096.30
2018-12-22T10:37:57.705Z,100108.58
2018-12-22T10:40:25.298Z,100117.33
2018-12-22T10:42:52.806Z,100119.53
2018-12-22T10:45:20.938Z,100123.98
2018-12-22T10:47:48.447Z,100130.69
2018-12-22T10:50:16.060Z,100132.59
2018-12-22T10:52:43.562Z,100134.98
2018-12-22T10:55:11.111Z,100137.61
2018-12-22T10:57:38.667Z,100143.52
2018-12-22T11:00:10.376Z,100151.51
2018-12-22T11:02:37.954Z,100140.27
2018-12-22T11:05:08.397Z,100160.08
2018-12-22T11:07:35.909Z,100174.73
2018-12-22T11:10:05.399Z,100175.50
2018-12-22T11:12:33.005Z,100182.77
2018-12-22T11:15:00.563Z,100196.92
2018-12-22T11:17:28.103Z,100200.68
2018-12-22T11:19:55.683Z,100194.45
2018-12-22T11:22:23.248Z,100198.34
2018-12-22T11:24:50.783Z,100198.36
2018-12-22T11:27:18.362Z,100202.62
2018-12-22T11:29:45.872Z,100207.48
2018-12-22T11:32:13.496Z,100205.31
2018-12-22T11:34:41.050Z,100213.12
2018-12-22T11:37:08.608Z,100218.64
2018-12-22T11:39:36.377Z,100223.48
2018-12-22T11:42:03.894Z,100231.47
2018-12-22T11:44:31.490Z,100235.64
2018-12-22T11:47:02.506Z,100236.14
2018-12-22T11:49:30.708Z,100239.03
2018-12-22T11:51:58.206Z,100247.77
2018-12-22T11:54:25.711Z,100244.37
2018-12-22T11:56:53.252Z,100253.42
2018-12-22T11:59:20.802Z,100253.59
2018-12-22T12:01:48.347Z,100262.69
2018-12-22T12:04:15.861Z,100268.36
2018-12-22T12:06:43.399Z,100271.39
2018-12-22T12:09:10.983Z,100285.61
2018-12-22T12:11:38.541Z,100291.14
2018-12-22T12:14:06.087Z,100302.26
2018-12-22T12:16:34.069Z,100311.95
2018-12-22T12:19:05.526Z,100309.75
2018-12-22T12:21:33.087Z,100321.75
2018-12-22T12:24:00.630Z,100316.67
2018-12-22T12:26:28.246Z,100319.06
2018-12-22T12:28:55.791Z,100323.12
2018-12-22T12:31:23.306Z,100333.99
2018-12-22T12:33:50.954Z,100343.50
2018-12-22T12:36:18.546Z,100356.64
2018-12-22T12:38:46.104Z,100370.73
2018-12-22T12:41:13.767Z,100371.76
2018-12-22T12:43:41.349Z,100371.94
2018-12-22T12:46:08.886Z,100374.89
2018-12-22T12:48:36.458Z,100376.64
2018-12-22T12:51:04.006Z,100375.22
2018-12-22T12:53:31.574Z,100386.96
2018-12-22T12:55:59.136Z,100386.89
2018-12-22T12:58:26.695Z,100397.95
2018-12-22T13:00:54.207Z,100400.66
2018-12-22T13:03:21.813Z,100411.80
2018-12-22T13:05:49.310Z,100410.62
2018-12-22T13:08:16.821Z,100412.44
2018-12-22T13:10:44.400Z,100421.38
2018-12-22T13:13:17.546Z,100421.21
2018-12-22T13:15:45.241Z,100426.13
2018-12-22T13:18:12.975Z,100433.66
2018-12-22T13:20:40.574Z,100441.36
2018-12-22T13:23:08.231Z,100452.80
2018-12-22T13:25:35.829Z,100454.81
2018-12-22T13:28:03.382Z,100453.92
2018-12-22T13:30:30.970Z,100465.06
2018-12-22T13:32:58.710Z,100468.98
2018-12-22T13:35:26.500Z,100464.11
2018-12-22T13:37:55.222Z,100476.97
2018-12-22T13:40:22.791Z,100484.44
2018-12-22T13:42:50.348Z,100486.23
2018-12-22T13:45:17.842Z,100494.28
2018-12-22T13:47:45.736Z,100496.62
2018-12-22T13:50:14.486Z,100503.52
2018-12-22T13:52:42.223Z,100512.35
2018-12-22T13:55:10.403Z,100511.21
2018-12-22T13:57:42.981Z,100520.91
2018-12-22T14:00:18.879Z,100525.15
2018-12-22T14:02:47.000Z,100534.58
2018-12-22T14:05:18.969Z,100538.44
2018-12-22T14:07:46.634Z,100550.38
2018-12-22T14:10:14.195Z,100555.34
2018-12-22T14:12:42.121Z,100562.48
2018-12-22T14:15:15.090Z,100555.09
2018-12-22T14:17:45.901Z,100573.42
2018-12-22T14:20:13.543Z,100574.66
2018-12-22T14:22:41.093Z,100580.72
2018-12-22T14:25:11.947Z,100574.93
2018-12-22T14:27:39.605Z,100586.51
2018-12-22T14:30:11.041Z,100589.30
2018-12-22T14:32:38.590Z,100592.50
2018-12-22T14:35:11.098Z,100593.78
2018-12-22T14:37:38.653Z,100600.56
2018-12-22T14:40:11.112Z,100611.21
2018-12-22T14:42:39.029Z,100615.28
2018-12-22T14:45:13.821Z,100615.33
2018-12-22T14:47:42.099Z,100621.59
2018-12-22T14:50:12.945Z,100624.94
2018-12-22T14:52:40.867Z,100634.84
2018-12-22T14:55:11.689Z,100637.89
2018-12-22T14:57:47.710Z,100650.87
2018-12-22T15:00:16.599Z,100658.92
2018-12-22T15:02:44.267Z,100654.88
2018-12-22T15:05:11.816Z,100663.71
2018-12-22T15:07:39.554Z,100671.12
2018-12-22T15:10:09.932Z,100676.92
2018-12-22T15:12:37.568Z,100685.48
2018-12-22T15:15:09.191Z,100689.34
2018-12-22T15:17:36.973Z,100694.34
2018-12-22T15:20:08.442Z,100694.69
2018-12-22T15:22:36.102Z,100704.45
2018-12-22T15:25:04.584Z,100715.09
2018-12-22T15:27:32.149Z,100712.86
2018-12-22T15:29:59.707Z,100726.27
2018-12-22T15:32:27.219Z,100733.75
2018-12-22T15:34:54.766Z,100730.95
2018-12-22T15:37:22.384Z,100737.17
2018-12-22T15:39:49.950Z,100741.78
2018-12-22T15:42:17.604Z,100738.50
2018-12-22T15:44:45.106Z,100735.41
2018-12-22T15:47:12.727Z,100734.03
2018-12-22T15:49:40.292Z,100740.69
2018-12-22T15:52:07.847Z,100736.83
2018-12-22T15:54:35.406Z,100750.48
2018-12-22T15:57:02.939Z,100752.16
2018-12-22T15:59:30.466Z,100746.83
2018-12-22T16:01:58.906Z,100753.01
2018-12-22T16:04:26.408Z,100753.88
2018-12-22T16:06:53.905Z,100748.39
2018-12-22T16:09:21.419Z,100753.13
2018-12-22T16:11:48.935Z,100763.89
2018-12-22T16:14:16.447Z,100769.52
2018-12-22T16:16:44.061Z,100773.05
2018-12-22T16:19:11.627Z,100765.05
2018-12-22T16:21:39.288Z,100760.31
2018-12-22T16:24:06.849Z,100769.58
2018-12-22T16:26:34.405Z,100766.80
2018-12-22T16:29:02.403Z,100758.74
2018-12-22T16:31:29.936Z,100752.89
2018-12-22T16:33:57.453Z,100757.71
2018-12-22T16:36:25.068Z,100758.93
2018-12-22T16:38:52.583Z,100767.66
2018-12-22T16:41:20.175Z,100766.33
2018-12-22T16:43:49.833Z,100760.83
2018-12-22T16:46:17.444Z,100762.91
2018-12-22T16:48:45.000Z,100752.80
2018-12-22T16:51:12.568Z,100756.73
2018-12-22T16:53:40.097Z,100760.24
2018-12-22T16:56:07.793Z,100766.39
2018-12-22T16:58:35.346Z,100771.01
2018-12-22T17:01:06.799Z,100767.42
2018-12-22T17:03:34.297Z,100773.75
2018-12-22T17:06:04.373Z,100783.00
2018-12-22T17:08:32.035Z,100778.19
2018-12-22T17:11:00.517Z,100789.84
2018-12-22T17:13:28.019Z,100789.13
2018-12-22T17:15:55.667Z,100789.19
2018-12-22T17:18:23.230Z,100787.27
2018-12-22T17:20:54.547Z,100790.30
2018-12-22T17:26:25.817Z,100790.36
2018-12-22T17:28:53.377Z,100786.88
2018-12-22T17:31:20.955Z,100791.45
2018-12-22T17:33:48.495Z,100783.58
2018-12-22T17:36:16.269Z,100788.62
2018-12-22T17:38:43.921Z,100787.34
2018-12-22T17:41:11.481Z,100789.13
2018-12-22T17:43:39.450Z,100793.53
2018-12-22T17:46:07.151Z,100791.62
2018-12-22T17:48:34.787Z,100790.69
2018-12-22T17:51:02.447Z,100796.03
2018-12-22T17:53:29.957Z,100800.83
2018-12-22T17:55:57.495Z,100801.80
2018-12-22T17:58:25.139Z,100799.44
2018-12-22T18:00:52.727Z,100801.97
2018-12-22T18:03:27.428Z,100807.94
2018-12-22T18:05:49.920Z,100798.98
2018-12-22T18:08:17.452Z,100811.75
2018-12-22T18:10:45.083Z,100813.49
2018-12-22T18:13:12.630Z,100823.79
2018-12-22T18:15:40.191Z,100826.04
2018-12-22T18:18:07.750Z,100824.02
2018-12-22T18:20:35.325Z,100826.51
2018-12-22T18:23:02.821Z,100826.72
2018-12-22T18:25:30.433Z,100822.11
2018-12-22T18:27:57.994Z,100824.31
2018-12-22T18:30:25.490Z,100826.56
2018-12-22T18:32:53.002Z,100831.54
2018-12-22T18:35:20.503Z,100826.56
2018-12-22T18:37:48.020Z,100834.54
2018-12-22T18:40:19.615Z,100830.45
2018-12-22T18:42:47.657Z,100825.08
2018-12-22T18:45:15.315Z,100833.39
2018-12-22T18:47:43.919Z,100829.77
2018-12-22T18:50:19.682Z,100831.01
2018-12-22T18:52:47.210Z,100824.26
2018-12-22T18:55:14.749Z,100828.77
2018-12-22T18:57:42.347Z,100829.59
2018-12-22T19:00:19.111Z,100832.81
2018-12-22T19:02:46.909Z,100835.36
2018-12-22T19:05:15.695Z,100836.13
2018-12-22T19:07:43.197Z,100836.80
2018-12-22T19:10:18.979Z,100842.12
2018-12-22T19:12:46.650Z,100844.73
2018-12-22T19:15:14.670Z,100849.05
2018-12-22T19:17:42.216Z,100848.13
2018-12-22T19:20:14.232Z,100849.45
2018-12-22T19:22:41.906Z,100848.98
2018-12-22T19:25:09.454Z,100844.70
2018-12-22T19:27:36.966Z,100855.17
2018-12-22T19:30:06.556Z,100854.87
2018-12-22T19:32:34.078Z,100861.78
2018-12-22T19:35:01.590Z,100856.77
2018-12-22T19:37:29.165Z,100854.05
2018-12-22T19:39:56.665Z,100857.68
2018-12-22T19:42:24.216Z,100857.69
2018-12-22T19:44:51.790Z,100856.51
2018-12-22T19:47:19.351Z,100864.45
2018-12-22T19:49:47.005Z,100864.75
2018-12-22T19:52:14.562Z,100864.34
2018-12-22T19:54:42.131Z,100860.91
2018-12-22T19:57:09.689Z,100861.16
2018-12-22T19:59:38.794Z,100858.24
2018-12-22T20:02:06.536Z,100859.98
2018-12-22T20:04:34.030Z,100852.94
2018-12-22T20:07:01.566Z,100860.14
2018-12-22T20:09:29.078Z,100852.56
2018-12-22T20:11:56.646Z,100858.66
2018-12-22T20:14:24.239Z,100858.09
2018-12-22T20:16:51.747Z,100852.38
2018-12-22T20:19:19.355Z,100856.29
2018-12-22T20:21:46.928Z,100857.44
2018-12-22T20:24:14.433Z,100863.12
2018-12-22T20:26:41.950Z,100867.25
2018-12-22T20:29:09.521Z,100870.74
2018-12-22T20:31:37.053Z,100867.67
2018-12-22T20:34:10.988Z,100872.88
2018-12-22T20:36:34.125Z,100870.48
2018-12-22T20:39:01.633Z,100876.56
2018-12-22T20:41:29.137Z,100871.10
2018-12-22T20:43:56.638Z,100876.42
2018-12-22T20:46:24.150Z,100875.85
2018-12-22T20:48:51.650Z,100885.48
2018-12-22T20:51:19.169Z,100877.49
2018-12-22T20:53:46.736Z,100885.92
2018-12-22T20:56:14.278Z,100890.19
2018-12-22T20:58:41.802Z,100888.30
2018-12-22T21:01:09.310Z,100896.47
2018-12-22T21:03:39.200Z,100896.28
2018-12-22T21:06:11.228Z,100902.22
2018-12-22T21:08:38.734Z,100898.16
2018-12-22T21:11:06.247Z,100896.38
2018-12-22T21:13:33.762Z,100898.94
2018-12-22T21:16:01.330Z,100902.01
2018-12-22T21:18:28.838Z,100904.25
2018-12-22T21:20:56.422Z,100901.49
2018-12-22T21:23:23.933Z,100899.23
2018-12-22T21:25:51.447Z,100901.55
2018-12-22T21:28:18.950Z,100909.94
2018-12-22T21:30:46.506Z,100914.34
2018-12-22T21:33:14.253Z,100917.88
2018-12-22T21:35:41.780Z,100916.09
2018-12-22T21:38:09.312Z,100916.13
2018-12-22T21:40:36.958Z,100918.53
2018-12-22T21:43:04.487Z,100922.63
2018-12-22T21:45:32.046Z,100922.94
2018-12-22T21:47:59.547Z,100924.23
2018-12-22T21:50:27.171Z,100924.94
2018-12-22T21:52:54.729Z,100932.52
2018-12-22T21:55:22.287Z,100934.72
2018-12-22T21:57:49.855Z,100931.23
2018-12-22T22:00:17.363Z,100934.80
2018-12-22T22:02:44.971Z,100947.75
2018-12-22T22:05:12.482Z,100950.05
2018-12-22T22:07:40.094Z,100949.50
2018-12-22T22:10:07.755Z,100947.50
2018-12-22T22:12:35.310Z,100959.00
2018-12-22T22:15:03.922Z,100959.64
2018-12-22T22:17:31.659Z,100958.50
2018-12-22T22:19:59.598Z,100959.73
2018-12-22T22:22:27.198Z,100962.49
2018-12-22T22:24:54.711Z,100961.16
2018-12-22T22:27:22.210Z,100955.79
2018-12-22T22:29:49.705Z,100966.58
2018-12-22T22:32:17.332Z,100974.10
2018-12-22T22:34:45.694Z,100975.02
2018-12-22T22:37:13.686Z,100976.80
2018-12-22T22:39:41.239Z,100979.52
2018-12-22T22:42:08.737Z,100979.52
2018-12-22T22:44:36.359Z,100987.45
2018-12-22T22:47:04.019Z,100989.66
2018-12-22T22:49:31.577Z,100987.91
2018-12-22T22:51:59.157Z,100987.14
2018-12-22T22:54:26.658Z,100995.53
2018-12-22T22:56:54.266Z,100995.95
2018-12-22T22:59:21.995Z,101008.74
2018-12-22T23:01:49.493Z,101009.98
2018-12-22T23:04:17.041Z,101014.98
2018-12-22T23:06:44.535Z,101019.39
2018-12-22T23:09:12.067Z,101016.36
2018-12-22T23:11:39.578Z,101029.15
2018-12-22T23:14:07.078Z,101027.47
2018-12-22T23:16:34.643Z,101032.73
2018-12-22T23:19:02.194Z,101037.97
2018-12-22T23:21:29.689Z,101040.31
2018-12-22T23:23:57.180Z,101035.49
2018-12-22T23:26:24.778Z,101038.48
2018-12-22T23:28:52.303Z,101033.10
2018-12-22T23:31:19.810Z,101031.81
2018-12-22T23:33:47.353Z,101046.45
2018-12-22T23:36:14.931Z,101050.44
2018-12-22T23:38:42.445Z,101046.03
2018-12-22T23:41:09.977Z,101053.20
2018-12-22T23:43:37.491Z,101053.33
2018-12-22T23:46:05.124Z,101054.16
2018-12-22T23:48:32.789Z,101059.89
2018-12-22T23:51:00.373Z,101068.45
2018-12-22T23:53:27.906Z,101072.08
2018-12-22T23:55:55.495Z,101076.93
2018-12-22T23:58:23.058Z,101084.80
